Time;durP1;ratioP1;P1;durP2;ratioP2;P2;SDS_P1;SDS_P2;PMS_P1;PMS_P2;Temp;Humidity;BMP_temperature;BMP_pressure;BME280_temperature;BME280_humidity;BME280_pressure;Samples;Min_cycle;Max_cycle;Signal;HPM_P1;HPM_P2
2024/04/03 00:01:21;;;;;;;7.40;3.10;;;10.30;99.90;;;;;;5052959;28;20206;-64
2024/04/03 00:03:48;;;;;;;7.70;3.10;;;10.30;99.90;;;;;;5052704;28;20439;-63
2024/04/03 00:06:15;;;;;;;4.70;2.77;;;10.30;99.90;;;;;;5053022;28;20197;-63
2024/04/03 00:08:42;;;;;;;8.30;3.30;;;10.30;99.90;;;;;;5053197;28;20522;-64
2024/04/03 00:11:09;;;;;;;3.97;2.37;;;10.30;99.90;;;;;;5052861;28;20444;-63
2024/04/03 00:13:34;;;;;;;4.53;3.13;;;10.30;99.90;;;;;;5053283;28;20443;-62
2024/04/03 00:16:01;;;;;;;5.23;2.67;;;10.30;99.90;;;;;;5052495;28;20482;-63
2024/04/03 00:18:27;;;;;;;5.57;2.50;;;10.30;99.90;;;;;;5053804;28;20201;-63
2024/04/03 00:21:01;;;;;;;3.27;2.77;;;10.30;99.90;;;;;;5054401;28;20436;-64
2024/04/03 00:23:28;;;;;;;8.20;3.00;;;10.30;99.90;;;;;;5053439;28;20225;-63
2024/04/03 00:25:56;;;;;;;5.50;3.20;;;10.30;99.90;;;;;;5052618;28;20947;-63
2024/04/03 00:28:22;;;;;;;10.10;3.70;;;10.30;99.90;;;;;;5053552;28;20470;-64
2024/04/03 00:30:49;;;;;;;6.30;3.13;;;10.20;99.90;;;;;;5056670;28;20926;-63
2024/04/03 00:33:14;;;;;;;3.67;3.22;;;10.20;99.90;;;;;;5056538;28;20739;-63
2024/04/03 00:35:41;;;;;;;5.60;3.23;;;10.20;99.90;;;;;;5056710;28;20217;-64
2024/04/03 00:38:07;;;;;;;5.67;4.00;;;10.20;99.90;;;;;;5056706;28;20204;-63
2024/04/03 00:40:35;;;;;;;7.57;3.60;;;10.20;99.90;;;;;;5056611;28;20557;-62
2024/04/03 00:43:11;;;;;;;9.30;3.95;;;10.10;99.90;;;;;;5056210;28;20741;-64
2024/04/03 00:45:38;;;;;;;7.83;3.70;;;10.10;99.90;;;;;;5056946;28;20272;-63
2024/04/03 00:48:04;;;;;;;5.20;3.80;;;10.00;99.90;;;;;;5056532;28;20435;-63
2024/04/03 00:50:31;;;;;;;11.10;4.10;;;9.90;99.90;;;;;;5056464;28;20442;-64
2024/04/03 00:52:57;;;;;;;8.60;3.83;;;9.90;99.90;;;;;;5056502;28;20471;-62
2024/04/03 00:55:24;;;;;;;7.03;3.60;;;9.80;99.90;;;;;;5055762;28;20447;-62
2024/04/03 00:57:52;;;;;;;10.50;4.07;;;9.80;99.90;;;;;;5057111;28;20208;-63
2024/04/03 01:00:19;;;;;;;9.10;4.57;;;9.70;99.90;;;;;;5055769;28;20965;-62
2024/04/03 01:02:45;;;;;;;8.57;4.30;;;9.60;99.90;;;;;;5055513;28;20741;-64
2024/04/03 01:05:12;;;;;;;5.23;4.10;;;9.60;99.90;;;;;;5056329;28;20201;-62
2024/04/03 01:07:37;;;;;;;8.77;4.50;;;9.50;99.90;;;;;;5056150;28;20200;-62
2024/04/03 01:10:06;;;;;;;8.70;5.27;;;9.40;99.90;;;;;;5055799;28;20448;-63
2024/04/03 01:12:33;;;;;;;9.38;4.82;;;9.40;99.90;;;;;;5055519;28;20228;-62
2024/04/03 01:15:01;;;;;;;9.00;4.05;;;9.30;99.90;;;;;;5056096;28;20236;-62
2024/04/03 01:17:27;;;;;;;11.05;3.65;;;9.30;99.90;;;;;;5056010;28;20235;-63
2024/04/03 01:19:54;;;;;;;11.20;4.47;;;9.20;99.90;;;;;;5055717;28;20201;-63
2024/04/03 01:22:20;;;;;;;8.55;4.72;;;9.20;99.90;;;;;;5055733;28;20275;-64
2024/04/03 01:24:48;;;;;;;8.87;4.00;;;9.10;99.90;;;;;;5055859;28;20203;-64
2024/04/03 01:27:14;;;;;;;6.60;4.30;;;9.10;99.90;;;;;;5055792;28;20207;-63
2024/04/03 01:29:41;;;;;;;8.40;4.10;;;9.00;99.90;;;;;;5056088;28;20197;-63
2024/04/03 01:32:07;;;;;;;7.68;4.95;;;9.00;99.90;;;;;;5055642;28;20230;-64
2024/04/03 01:34:33;;;;;;;8.27;5.00;;;9.00;99.90;;;;;;5057321;28;20197;-63
2024/04/03 01:36:59;;;;;;;7.65;5.05;;;9.00;99.90;;;;;;5058908;28;20506;-63
2024/04/03 01:39:27;;;;;;;9.00;5.50;;;9.00;99.90;;;;;;5057433;28;20657;-64
2024/04/03 01:41:54;;;;;;;8.55;5.20;;;9.00;99.90;;;;;;5054780;28;20224;-64
2024/04/03 01:44:21;;;;;;;8.50;5.60;;;9.00;99.90;;;;;;5055516;28;20203;-64
2024/04/03 01:46:46;;;;;;;7.68;5.43;;;8.90;99.90;;;;;;5055360;28;20201;-64
2024/04/03 01:49:14;;;;;;;9.90;5.80;;;8.90;99.90;;;;;;5054946;28;20202;-63
2024/04/03 01:51:40;;;;;;;13.05;6.55;;;8.80;99.90;;;;;;5055116;28;20235;-62
2024/04/03 01:54:06;;;;;;;13.00;6.30;;;8.80;99.90;;;;;;5055146;28;20570;-64
2024/04/03 01:56:32;;;;;;;9.48;6.00;;;8.80;99.90;;;;;;5054982;28;20226;-64
2024/04/03 01:59:00;;;;;;;12.70;6.00;;;8.80;99.90;;;;;;5055243;28;20203;-63
2024/04/03 02:01:26;;;;;;;13.82;6.72;;;8.80;99.90;;;;;;5056133;28;20303;-63
2024/04/03 02:03:53;;;;;;;13.53;6.97;;;8.90;99.90;;;;;;5054920;28;20292;-64
2024/04/03 02:06:19;;;;;;;11.10;6.45;;;8.90;99.90;;;;;;5054948;28;20209;-63
2024/04/03 02:08:45;;;;;;;12.25;5.70;;;8.90;99.90;;;;;;5055144;28;20231;-63
2024/04/03 02:11:11;;;;;;;12.40;7.00;;;8.90;99.90;;;;;;5054957;28;20231;-62
2024/04/03 02:13:38;;;;;;;12.90;6.77;;;8.90;99.90;;;;;;5054940;28;20640;-63
2024/04/03 02:16:05;;;;;;;15.60;7.00;;;8.90;99.90;;;;;;5054933;28;20223;-63
2024/04/03 02:18:32;;;;;;;13.23;6.93;;;8.90;99.90;;;;;;5055019;28;20219;-63
2024/04/03 02:20:58;;;;;;;14.68;7.28;;;9.00;99.90;;;;;;5054790;28;20575;-64
2024/04/03 02:23:24;;;;;;;12.10;6.23;;;9.00;99.90;;;;;;5054717;28;20219;-63
2024/04/03 02:25:50;;;;;;;12.07;6.82;;;9.10;99.90;;;;;;5057224;28;20672;-63
2024/04/03 02:28:17;;;;;;;11.80;5.70;;;9.10;99.90;;;;;;5057765;28;20208;-64
2024/04/03 02:30:42;;;;;;;7.90;6.87;;;9.20;99.90;;;;;;5058476;28;20204;-63
2024/04/03 02:33:11;;;;;;;12.13;6.40;;;9.20;99.90;;;;;;5057708;28;20473;-63
2024/04/03 02:35:37;;;;;;;11.98;6.43;;;9.20;99.90;;;;;;5057855;28;20205;-64
2024/04/03 02:38:04;;;;;;;7.80;5.50;;;9.20;99.90;;;;;;5057133;28;20211;-64
2024/04/03 02:40:30;;;;;;;15.25;6.65;;;9.20;99.90;;;;;;5057847;28;20212;-63
2024/04/03 02:42:59;;;;;;;10.13;5.90;;;9.20;99.90;;;;;;5058101;28;20227;-64
2024/04/03 02:45:25;;;;;;;13.07;7.30;;;9.20;99.90;;;;;;5058764;28;20443;-63
2024/04/03 02:47:51;;;;;;;14.60;7.00;;;9.20;99.90;;;;;;5058281;28;20682;-63
2024/04/03 02:50:18;;;;;;;12.23;7.07;;;9.20;99.90;;;;;;5058675;28;20291;-64
2024/04/03 02:52:45;;;;;;;11.63;6.50;;;9.30;99.90;;;;;;5057067;28;20494;-63
2024/04/03 02:55:11;;;;;;;11.10;6.20;;;9.30;99.90;;;;;;5060944;28;20244;-62
2024/04/03 02:57:38;;;;;;;12.67;6.10;;;9.40;99.90;;;;;;5058375;28;20225;-63
2024/04/03 03:00:05;;;;;;;11.57;5.63;;;9.40;99.90;;;;;;5056580;28;20205;-63
2024/04/03 03:02:31;;;;;;;9.83;6.30;;;9.40;99.90;;;;;;5059406;28;20237;-63
2024/04/03 03:04:57;;;;;;;10.07;6.38;;;9.40;99.90;;;;;;5057908;28;20455;-63
2024/04/03 03:07:25;;;;;;;10.50;5.70;;;9.40;99.90;;;;;;5057788;28;20197;-63
2024/04/03 03:09:51;;;;;;;11.82;5.65;;;9.40;99.90;;;;;;5060044;28;20220;-63
2024/04/03 03:12:18;;;;;;;11.53;6.23;;;9.30;99.90;;;;;;5056207;28;20224;-64
2024/04/03 03:14:43;;;;;;;9.98;6.45;;;9.30;99.90;;;;;;5055389;28;20205;-63
2024/04/03 03:17:10;;;;;;;13.40;6.57;;;9.20;99.90;;;;;;5057768;28;20561;-63
2024/04/03 03:19:36;;;;;;;12.35;5.45;;;9.20;99.90;;;;;;5055598;28;20217;-63
2024/04/03 03:22:03;;;;;;;16.23;5.90;;;9.10;99.90;;;;;;5055567;28;20225;-63
2024/04/03 03:24:30;;;;;;;9.18;5.03;;;9.10;99.90;;;;;;5055082;28;20207;-63
2024/04/03 03:26:57;;;;;;;12.90;6.63;;;9.10;99.90;;;;;;5053531;28;20204;-64
2024/04/03 03:29:22;;;;;;;8.10;4.63;;;9.10;99.90;;;;;;5053511;28;20200;-63
2024/04/03 03:31:49;;;;;;;13.50;5.57;;;9.00;99.90;;;;;;5053776;28;20227;-64
2024/04/03 03:34:15;;;;;;;10.30;5.32;;;9.00;99.90;;;;;;5053532;28;20568;-62
2024/04/03 03:36:41;;;;;;;13.97;5.93;;;9.00;99.90;;;;;;5053405;28;20221;-63
2024/04/03 03:39:08;;;;;;;10.65;5.30;;;9.00;99.90;;;;;;5053065;28;20213;-63
2024/04/03 03:41:35;;;;;;;14.03;5.47;;;9.10;99.90;;;;;;5053422;28;20220;-64
2024/04/03 03:44:02;;;;;;;12.35;5.40;;;9.10;99.90;;;;;;5053689;28;20910;-62
2024/04/03 03:46:28;;;;;;;12.55;5.05;;;9.10;99.90;;;;;;5053740;28;20196;-62
2024/04/03 03:54:23;;;;;;;9.77;4.22;;;9.20;99.90;;;;;;5053256;28;20184;-64
2024/04/03 03:56:51;;;;;;;9.82;4.32;;;9.30;99.90;;;;;;5053246;28;20221;-63
2024/04/03 03:59:18;;;;;;;7.20;4.07;;;9.30;99.90;;;;;;5053181;28;20205;-63
2024/04/03 04:01:45;;;;;;;8.93;4.80;;;9.40;99.90;;;;;;5052704;28;20229;-63
2024/04/03 04:04:12;;;;;;;8.98;5.60;;;9.40;99.90;;;;;;5053035;28;20449;-63
2024/04/03 04:06:39;;;;;;;9.93;3.72;;;9.40;99.90;;;;;;5055910;28;20197;-64
2024/04/03 04:09:04;;;;;;;11.10;3.50;;;9.50;99.90;;;;;;5054359;28;20201;-62
2024/04/03 04:13:28;;;;;;;12.80;4.23;;;9.50;99.90;;;;;;5091159;28;20554;-64
2024/04/03 04:15:58;;;;;;;10.63;3.60;;;9.60;99.90;;;;;;5090712;28;20450;-64
2024/04/03 04:18:24;;;;;;;4.80;3.23;;;9.60;99.90;;;;;;5090436;28;20434;-63
2024/04/03 04:20:53;;;;;;;5.97;3.63;;;9.60;99.90;;;;;;5090495;28;20439;-64
2024/04/03 04:23:20;;;;;;;10.07;3.57;;;9.60;99.90;;;;;;5090404;28;20454;-64
2024/04/03 04:25:53;;;;;;;4.93;3.33;;;9.70;99.90;;;;;;5090317;28;20813;-64
2024/04/03 04:28:20;;;;;;;15.63;3.80;;;9.70;99.90;;;;;;5090380;28;20426;-65
2024/04/03 04:30:54;;;;;;;6.40;3.03;;;9.70;99.90;;;;;;5090119;28;20450;-64
2024/04/03 04:33:21;;;;;;;8.70;4.00;;;9.70;99.90;;;;;;5089761;28;20674;-66
2024/04/03 04:35:52;;;;;;;6.97;3.77;;;9.70;99.90;;;;;;5089672;28;20438;-64
2024/04/03 04:38:19;;;;;;;6.80;2.93;;;9.70;99.90;;;;;;5089915;28;20518;-64
2024/04/03 04:40:55;;;;;;;11.77;4.00;;;9.70;99.90;;;;;;5090337;28;20434;-63
2024/04/03 04:43:22;;;;;;;8.43;3.30;;;9.80;99.90;;;;;;5090137;28;20885;-64
2024/04/03 04:45:57;;;;;;;8.30;3.23;;;9.80;99.90;;;;;;5089768;28;20443;-65
2024/04/03 04:48:24;;;;;;;8.50;3.73;;;9.80;99.90;;;;;;5090086;28;20932;-64
2024/04/03 04:50:53;;;;;;;11.70;3.33;;;9.80;99.90;;;;;;5089479;28;20439;-64
2024/04/03 04:53:20;;;;;;;8.03;3.63;;;9.80;99.90;;;;;;5089621;28;20553;-65
2024/04/03 04:55:56;;;;;;;10.70;4.90;;;9.80;99.90;;;;;;5090219;28;20438;-65
2024/04/03 04:58:23;;;;;;;8.00;3.83;;;9.80;99.90;;;;;;5089589;28;20511;-65
2024/04/03 05:00:50;;;;;;;6.67;3.30;;;9.90;99.90;;;;;;5089201;28;20438;-64
2024/04/03 05:03:18;;;;;;;7.47;3.53;;;9.90;99.90;;;;;;5089534;28;20493;-62
2024/04/03 05:05:44;;;;;;;6.97;3.23;;;9.90;99.90;;;;;;5090224;28;20438;-65
2024/04/03 05:08:11;;;;;;;7.97;3.73;;;9.90;99.90;;;;;;5089556;28;20445;-65
2024/04/03 05:10:37;;;;;;;14.53;4.30;;;9.90;99.90;;;;;;5089555;28;20314;-65
2024/04/03 05:13:04;;;;;;;7.60;3.73;;;10.00;99.90;;;;;;5088791;28;20482;-64
2024/04/03 05:15:30;;;;;;;6.10;4.07;;;10.00;99.90;;;;;;5089672;28;20443;-64
2024/04/03 05:17:59;;;;;;;6.70;4.03;;;10.00;99.90;;;;;;5089144;28;20986;-65
2024/04/03 05:20:26;;;;;;;11.40;5.30;;;10.10;99.90;;;;;;5101317;28;20434;-65
2024/04/03 05:22:53;;;;;;;9.20;4.00;;;10.10;99.90;;;;;;5099470;28;20968;-64
2024/04/03 05:25:18;;;;;;;5.93;3.90;;;10.10;99.90;;;;;;5075732;28;20446;-65
2024/04/03 05:27:45;;;;;;;5.73;4.50;;;10.10;99.90;;;;;;5075914;28;20439;-65
2024/04/03 05:30:11;;;;;;;8.03;4.70;;;10.10;99.90;;;;;;5075706;28;20209;-66
2024/04/03 05:32:38;;;;;;;8.03;4.87;;;10.20;99.90;;;;;;5075629;28;20849;-64
2024/04/03 05:35:04;;;;;;;12.33;5.50;;;10.20;99.90;;;;;;5075328;28;20956;-65
2024/04/03 05:37:32;;;;;;;11.43;4.93;;;10.20;99.90;;;;;;5075675;28;20443;-65
2024/04/03 05:39:58;;;;;;;9.87;5.00;;;10.20;99.90;;;;;;5075583;28;20447;-66
2024/04/03 05:42:25;;;;;;;6.60;5.30;;;10.20;99.90;;;;;;5074879;28;20991;-64
2024/04/03 05:44:51;;;;;;;13.10;5.80;;;10.30;99.90;;;;;;5075047;28;20283;-64
2024/04/03 05:47:18;;;;;;;12.90;6.20;;;10.30;99.90;;;;;;5075434;28;20443;-66
2024/04/03 05:49:44;;;;;;;15.07;7.13;;;10.30;99.90;;;;;;5075533;28;20536;-64
2024/04/03 05:52:10;;;;;;;12.60;7.03;;;10.30;99.90;;;;;;5075120;28;20955;-64
2024/04/03 05:54:37;;;;;;;13.60;7.30;;;10.30;99.90;;;;;;5075598;28;20205;-65
2024/04/03 05:57:05;;;;;;;10.13;6.70;;;10.30;99.90;;;;;;5074781;28;20937;-65
2024/04/03 05:59:30;;;;;;;10.23;7.27;;;10.30;99.90;;;;;;5074971;28;20438;-66
2024/04/03 06:01:57;;;;;;;10.37;7.10;;;10.30;99.90;;;;;;5074906;28;20811;-65
2024/04/03 06:04:23;;;;;;;17.70;8.67;;;10.30;99.90;;;;;;5075333;28;20217;-65
2024/04/03 06:06:51;;;;;;;13.00;7.80;;;10.30;99.90;;;;;;5074309;28;20470;-65
2024/04/03 06:09:16;;;;;;;14.63;8.57;;;10.30;99.90;;;;;;5074717;28;20477;-64
2024/04/03 06:11:44;;;;;;;13.23;8.43;;;10.30;99.90;;;;;;5074359;28;20482;-64
2024/04/03 06:14:10;;;;;;;10.50;8.23;;;10.30;99.90;;;;;;5076144;28;20201;-64
2024/04/03 06:16:37;;;;;;;12.87;8.63;;;10.40;99.90;;;;;;5075496;28;20465;-65
2024/04/03 06:19:05;;;;;;;17.60;8.90;;;10.50;99.90;;;;;;5074809;28;20223;-65
2024/04/03 06:21:32;;;;;;;15.20;9.10;;;10.60;99.90;;;;;;5074750;28;20876;-64
2024/04/03 06:23:58;;;;;;;13.33;8.47;;;10.70;99.90;;;;;;5074553;28;20443;-65
2024/04/03 06:26:25;;;;;;;13.63;9.00;;;10.70;99.90;;;;;;5074605;28;20526;-65
2024/04/03 06:28:52;;;;;;;11.40;8.63;;;10.70;99.90;;;;;;5074874;28;20447;-64
2024/04/03 06:31:19;;;;;;;9.93;7.70;;;10.80;99.90;;;;;;5074015;28;20439;-63
2024/04/03 06:33:45;;;;;;;10.57;8.27;;;10.80;99.90;;;;;;5079759;28;20539;-63
2024/04/03 06:36:11;;;;;;;15.03;7.83;;;10.90;99.90;;;;;;5084047;28;20443;-64
2024/04/03 06:38:37;;;;;;;11.80;8.30;;;10.90;99.90;;;;;;5076659;28;20201;-64
2024/04/03 06:41:04;;;;;;;9.30;7.73;;;11.00;99.90;;;;;;5074048;28;20445;-63
2024/04/03 06:43:30;;;;;;;9.83;7.43;;;11.00;99.90;;;;;;5074130;28;20299;-63
2024/04/03 06:45:58;;;;;;;9.20;8.03;;;11.00;99.90;;;;;;5074096;28;20443;-63
2024/04/03 06:48:24;;;;;;;10.27;7.50;;;10.90;99.90;;;;;;5074158;28;20262;-64
2024/04/03 06:50:54;;;;;;;8.57;7.47;;;10.90;99.90;;;;;;5074338;28;20522;-64
2024/04/03 06:53:19;;;;;;;8.73;7.50;;;10.90;99.90;;;;;;5073938;28;20229;-63
2024/04/03 06:55:56;;;;;;;9.13;8.23;;;10.80;99.90;;;;;;5074195;28;20439;-63
2024/04/03 06:58:22;;;;;;;13.17;9.00;;;10.90;99.90;;;;;;5074196;28;20189;-62
2024/04/03 07:00:49;;;;;;;9.43;8.47;;;10.80;99.90;;;;;;5074139;28;20486;-64
2024/04/03 07:03:16;;;;;;;12.03;9.57;;;10.80;99.90;;;;;;5073947;28;20972;-64
2024/04/03 07:05:44;;;;;;;12.53;9.63;;;10.80;99.90;;;;;;5073689;28;20447;-64
2024/04/03 07:08:11;;;;;;;12.60;9.23;;;10.90;99.90;;;;;;5073476;28;20447;-64
2024/04/03 07:10:37;;;;;;;10.17;8.83;;;11.00;99.90;;;;;;5074030;28;20443;-65
2024/04/03 07:13:04;;;;;;;12.27;7.77;;;11.10;99.90;;;;;;5072902;28;20507;-65
2024/04/03 07:15:32;;;;;;;11.93;8.10;;;11.20;99.90;;;;;;5073246;28;20451;-65
2024/04/03 07:17:58;;;;;;;8.87;8.07;;;11.20;99.90;;;;;;5073577;28;20451;-65
2024/04/03 07:20:26;;;;;;;11.83;7.77;;;11.30;99.90;;;;;;5073443;28;20454;-65
2024/04/03 07:22:52;;;;;;;8.47;7.57;;;11.40;99.90;;;;;;5074067;28;20249;-66
2024/04/03 07:25:19;;;;;;;9.80;7.47;;;11.50;99.90;;;;;;5076018;28;20510;-63
2024/04/03 07:27:46;;;;;;;6.87;5.97;;;11.60;99.90;;;;;;5076679;28;20439;-66
2024/04/03 07:30:13;;;;;;;8.70;7.47;;;11.70;99.90;;;;;;5074685;28;20439;-66
2024/04/03 07:32:40;;;;;;;11.43;6.67;;;11.80;99.90;;;;;;5074234;28;20482;-66
2024/04/03 07:35:07;;;;;;;8.57;7.30;;;12.00;99.90;;;;;;5073422;28;20941;-64
2024/04/03 07:37:38;;;;;;;7.70;5.53;;;12.20;99.90;;;;;;5073736;28;20446;-64
2024/04/03 07:40:08;;;;;;;7.50;6.03;;;12.30;99.90;;;;;;5073971;28;20420;-65
2024/04/03 07:42:36;;;;;;;8.90;6.43;;;12.50;99.90;;;;;;5074273;28;20471;-65
2024/04/03 07:45:04;;;;;;;9.00;5.57;;;12.40;99.90;;;;;;5073174;28;20474;-65
2024/04/03 07:47:30;;;;;;;5.63;4.80;;;12.30;99.90;;;;;;5073563;28;20454;-65
2024/04/03 07:49:57;;;;;;;6.10;4.70;;;12.20;99.90;;;;;;5073879;28;20558;-65
2024/04/03 07:52:22;;;;;;;8.40;4.60;;;12.10;99.90;;;;;;5073009;28;20221;-65
2024/04/03 07:54:51;;;;;;;6.83;5.20;;;11.90;99.90;;;;;;5073287;28;20446;-65
2024/04/03 07:57:17;;;;;;;7.13;4.90;;;11.90;99.90;;;;;;5086482;28;20204;-65
2024/04/03 07:59:45;;;;;;;5.90;4.27;;;11.80;99.90;;;;;;5086494;28;20498;-65
2024/04/03 08:02:10;;;;;;;6.00;4.77;;;11.80;99.90;;;;;;5073667;28;20482;-65
2024/04/03 08:04:37;;;;;;;5.77;5.10;;;11.90;99.90;;;;;;5073373;28;20949;-65
2024/04/03 08:07:03;;;;;;;6.53;4.40;;;12.00;99.90;;;;;;5073293;28;20196;-66
2024/04/03 08:09:32;;;;;;;5.23;4.17;;;12.20;99.90;;;;;;5073131;28;20929;-66
2024/04/03 08:12:00;;;;;;;4.73;4.23;;;12.30;99.90;;;;;;5072773;28;20536;-64
2024/04/03 08:14:27;;;;;;;4.33;3.40;;;12.60;99.90;;;;;;5073250;28;20443;-65
2024/04/03 08:16:53;;;;;;;4.40;3.47;;;12.80;99.90;;;;;;5072984;28;20435;-65
2024/04/03 08:19:20;;;;;;;3.57;2.83;;;13.00;99.90;;;;;;5072739;28;20446;-66
2024/04/03 08:21:47;;;;;;;5.73;3.47;;;13.10;99.90;;;;;;5073505;28;20823;-65
2024/04/03 08:24:14;;;;;;;3.87;3.30;;;13.10;99.90;;;;;;5072827;28;20855;-65
2024/04/03 08:26:40;;;;;;;3.57;3.27;;;13.10;99.90;;;;;;5073418;28;20467;-65
2024/04/03 08:29:08;;;;;;;4.13;3.70;;;13.20;99.90;;;;;;5073147;28;20963;-65
2024/04/03 08:31:35;;;;;;;4.40;4.00;;;13.30;99.90;;;;;;5073482;28;20221;-66
2024/04/03 08:34:02;;;;;;;4.17;3.70;;;13.40;99.90;;;;;;5073210;28;20486;-66
2024/04/03 08:36:28;;;;;;;4.20;3.83;;;13.50;99.90;;;;;;5073111;28;20439;-66
2024/04/03 08:38:55;;;;;;;4.77;4.37;;;13.50;99.90;;;;;;5072778;28;20439;-67
2024/04/03 08:41:21;;;;;;;4.30;3.90;;;13.50;99.90;;;;;;5073600;28;20226;-66
2024/04/03 08:43:51;;;;;;;5.70;4.10;;;13.40;99.90;;;;;;5073460;28;20438;-67
2024/04/03 08:46:19;;;;;;;4.07;3.67;;;13.30;99.90;;;;;;5073841;28;20191;-66
2024/04/03 08:48:46;;;;;;;6.80;4.63;;;13.30;99.90;;;;;;5073737;28;20902;-66
2024/04/03 08:51:14;;;;;;;5.30;4.80;;;13.40;99.90;;;;;;5075203;28;20446;-66
2024/04/03 08:53:43;;;;;;;5.10;4.60;;;13.50;99.90;;;;;;5078350;28;21074;-66
2024/04/03 08:56:14;;;;;;;5.60;5.00;;;13.60;99.90;;;;;;5076726;28;20435;-66
2024/04/03 08:58:41;;;;;;;4.30;3.90;;;13.80;99.90;;;;;;5078583;28;20423;-64
2024/04/03 09:01:08;;;;;;;5.33;4.43;;;13.70;99.90;;;;;;5079752;28;20952;-66
2024/04/03 09:03:36;;;;;;;4.70;4.20;;;13.60;99.90;;;;;;5082448;28;20482;-66
2024/04/03 09:06:01;;;;;;;3.70;3.30;;;13.60;99.90;;;;;;5082823;28;20447;-65
2024/04/03 09:08:28;;;;;;;4.30;3.90;;;13.60;99.90;;;;;;5082978;28;20453;-66
2024/04/03 09:10:56;;;;;;;4.03;3.67;;;13.70;99.90;;;;;;5082500;28;20200;-66
2024/04/03 09:13:23;;;;;;;3.27;2.83;;;13.60;99.90;;;;;;5076444;28;20546;-65
2024/04/03 09:15:52;;;;;;;4.50;3.80;;;13.50;99.90;;;;;;5075996;28;20450;-66
2024/04/03 09:18:20;;;;;;;3.47;3.07;;;13.50;99.90;;;;;;5075885;28;20439;-66
2024/04/03 09:20:50;;;;;;;7.43;3.13;;;13.50;99.90;;;;;;5076538;28;20874;-66
2024/04/03 09:23:18;;;;;;;3.67;3.10;;;13.60;99.90;;;;;;5076143;28;20988;-66
2024/04/03 09:25:44;;;;;;;3.07;2.77;;;13.60;99.90;;;;;;5076269;28;20439;-66
2024/04/03 09:28:12;;;;;;;2.57;2.37;;;13.60;99.90;;;;;;5089030;28;20449;-66
2024/04/03 09:30:40;;;;;;;2.60;2.10;;;13.50;99.90;;;;;;5091417;28;20207;-66
2024/04/03 09:33:07;;;;;;;3.90;2.80;;;13.40;99.90;;;;;;5085591;28;20824;-66
2024/04/03 09:35:35;;;;;;;2.70;2.50;;;13.20;99.90;;;;;;5080455;28;20447;-66
2024/04/03 09:38:03;;;;;;;3.23;2.27;;;13.20;99.90;;;;;;5076947;28;20447;-66
2024/04/03 09:40:30;;;;;;;3.03;2.30;;;13.30;99.90;;;;;;5076260;28;20443;-66
2024/04/03 09:42:59;;;;;;;5.60;3.40;;;13.30;99.90;;;;;;5076481;28;21018;-66
2024/04/03 09:45:26;;;;;;;4.00;2.73;;;13.20;99.90;;;;;;5076557;28;20529;-65
2024/04/03 09:47:58;;;;;;;3.10;2.00;;;13.20;99.90;;;;;;5076529;28;20473;-66
2024/04/03 09:50:31;;;;;;;3.03;2.17;;;13.10;99.90;;;;;;5076344;28;20502;-66
2024/04/03 09:52:59;;;;;;;3.90;2.67;;;13.00;99.90;;;;;;5078520;28;20593;-66
2024/04/03 09:55:28;;;;;;;2.20;1.87;;;12.80;99.90;;;;;;5083785;28;20454;-68
2024/04/03 09:58:00;;;;;;;3.50;1.70;;;12.80;99.90;;;;;;5081113;28;20447;-66
2024/04/03 10:00:26;;;;;;;1.90;1.70;;;12.90;99.90;;;;;;5079633;28;20428;-66
2024/04/03 10:02:52;;;;;;;3.20;1.60;;;12.80;99.90;;;;;;5079152;28;20470;-65
2024/04/03 10:05:21;;;;;;;3.60;2.20;;;12.80;99.90;;;;;;5076801;28;20972;-66
2024/04/03 10:08:01;;;;;;;2.60;1.50;;;12.70;99.90;;;;;;5077013;28;20447;-66
2024/04/03 10:10:28;;;;;;;2.37;1.70;;;12.70;99.90;;;;;;5075557;28;20769;-65
2024/04/03 10:12:58;;;;;;;2.90;1.70;;;12.70;99.90;;;;;;5076748;28;20676;-65
2024/04/03 10:15:24;;;;;;;3.10;1.90;;;12.70;99.90;;;;;;5076519;28;20435;-66
2024/04/03 10:17:51;;;;;;;2.20;1.60;;;12.80;99.90;;;;;;5076283;28;20446;-67
2024/04/03 10:20:38;;;;;;;4.20;1.97;;;12.80;99.90;;;;;;5076379;28;20436;-65
2024/04/03 10:23:08;;;;;;;1.70;1.30;;;12.80;99.90;;;;;;5075869;28;20782;-66
2024/04/03 10:25:36;;;;;;;5.30;2.30;;;12.80;99.90;;;;;;5076599;28;20495;-66
2024/04/03 10:28:09;;;;;;;6.97;3.53;;;12.80;99.90;;;;;;5078094;28;20454;-66
2024/04/03 10:30:34;;;;;;;2.63;1.70;;;13.00;99.90;;;;;;5078765;28;20554;-66
2024/04/03 10:33:02;;;;;;;2.33;1.33;;;13.30;99.90;;;;;;5077629;28;20859;-66
2024/04/03 10:35:29;;;;;;;2.00;1.37;;;13.60;99.90;;;;;;5078989;28;20283;-66
2024/04/03 10:37:58;;;;;;;4.77;1.73;;;13.90;99.90;;;;;;5076029;28;20953;-66
2024/04/03 10:40:25;;;;;;;2.60;1.50;;;14.20;99.90;;;;;;5074862;28;20443;-67
2024/04/03 10:42:53;;;;;;;2.83;1.43;;;14.50;99.90;;;;;;5074649;28;20466;-66
2024/04/03 10:45:19;;;;;;;1.33;1.20;;;14.60;99.90;;;;;;5076407;28;20443;-67
2024/04/03 10:47:47;;;;;;;1.33;1.10;;;14.80;99.90;;;;;;5074286;28;20963;-66
2024/04/03 10:50:13;;;;;;;3.40;1.30;;;14.80;99.90;;;;;;5074604;28;20447;-66
2024/04/03 10:52:40;;;;;;;1.90;1.00;;;14.90;99.90;;;;;;5074334;28;20972;-67
2024/04/03 10:55:06;;;;;;;1.90;1.00;;;15.00;99.90;;;;;;5075026;28;20439;-68
2024/04/03 10:57:33;;;;;;;4.53;1.40;;;15.20;99.90;;;;;;5074629;28;20446;-66
2024/04/03 11:00:00;;;;;;;1.70;1.20;;;15.20;99.90;;;;;;5080445;28;20435;-67
2024/04/03 11:02:28;;;;;;;1.70;1.50;;;15.20;99.90;;;;;;5084156;28;20471;-67
2024/04/03 11:04:54;;;;;;;3.13;1.13;;;15.00;99.90;;;;;;5077922;28;20528;-65
2024/04/03 11:07:23;;;;;;;2.53;1.33;;;14.80;99.90;;;;;;5075002;28;21054;-66
2024/04/03 11:09:49;;;;;;;1.90;1.17;;;14.70;99.90;;;;;;5075030;28;20435;-65
2024/04/03 11:12:18;;;;;;;4.87;1.30;;;14.60;99.90;;;;;;5075846;28;20493;-66
2024/04/03 11:14:45;;;;;;;2.97;1.50;;;14.40;99.90;;;;;;5075277;28;21000;-65
2024/04/03 11:17:13;;;;;;;2.73;1.77;;;14.20;99.90;;;;;;5074843;28;20880;-66
2024/04/03 11:19:38;;;;;;;3.40;1.30;;;14.10;99.90;;;;;;5075048;28;20439;-64
2024/04/03 11:22:05;;;;;;;2.23;1.20;;;14.10;99.90;;;;;;5074365;28;20490;-67
2024/04/03 11:24:31;;;;;;;2.20;1.20;;;14.20;99.90;;;;;;5074889;28;20283;-66
2024/04/03 11:26:58;;;;;;;1.77;1.30;;;14.20;99.90;;;;;;5075228;28;20447;-66
2024/04/03 11:29:30;;;;;;;2.03;1.37;;;14.20;99.90;;;;;;5074542;28;20200;-67
2024/04/03 11:31:57;;;;;;;3.10;1.70;;;14.30;99.90;;;;;;5075553;28;20459;-66
2024/04/03 11:34:27;;;;;;;2.60;1.27;;;14.40;99.90;;;;;;5074886;28;20482;-66
2024/04/03 11:36:54;;;;;;;1.70;1.10;;;14.60;99.90;;;;;;5075087;28;20521;-66
2024/04/03 11:39:20;;;;;;;4.80;2.07;;;14.80;99.90;;;;;;5074475;28;20454;-67
2024/04/03 11:41:47;;;;;;;1.70;1.20;;;15.00;99.90;;;;;;5076386;28;20466;-64
2024/04/03 11:44:14;;;;;;;2.70;1.00;;;14.90;99.90;;;;;;5077232;28;20446;-67
2024/04/03 11:46:41;;;;;;;1.83;1.10;;;14.90;99.90;;;;;;5075655;28;20450;-67
2024/04/03 11:49:07;;;;;;;3.70;1.37;;;14.90;99.90;;;;;;5073829;28;20913;-67
2024/04/03 11:51:35;;;;;;;3.60;1.20;;;14.80;99.90;;;;;;5073181;28;20459;-66
2024/04/03 11:54:01;;;;;;;4.57;1.57;;;14.70;99.90;;;;;;5073098;28;20228;-67
2024/04/03 11:56:29;;;;;;;7.13;1.90;;;14.50;99.90;;;;;;5073235;28;20446;-67
2024/04/03 11:58:55;;;;;;;1.80;1.40;;;14.40;99.90;;;;;;5073002;28;20236;-66
2024/04/03 12:01:22;;;;;;;2.27;1.30;;;14.20;99.90;;;;;;5073166;28;20516;-67
2024/04/03 12:03:48;;;;;;;2.27;1.20;;;14.10;99.90;;;;;;5073352;28;20442;-67
2024/04/03 12:06:15;;;;;;;1.70;1.00;;;14.00;99.90;;;;;;5073527;28;20941;-67
2024/04/03 12:08:47;;;;;;;1.80;1.07;;;14.00;99.90;;;;;;5074187;28;20211;-67
2024/04/03 12:11:14;;;;;;;4.13;1.07;;;14.00;99.90;;;;;;5073093;28;20459;-65
2024/04/03 12:13:39;;;;;;;2.80;1.13;;;13.90;99.90;;;;;;5072844;28;20477;-67
2024/04/03 12:16:07;;;;;;;1.30;0.90;;;13.60;99.90;;;;;;5073157;28;20814;-67
2024/04/03 12:18:37;;;;;;;3.97;1.50;;;13.20;99.90;;;;;;5073328;28;20212;-68
2024/04/03 12:21:07;;;;;;;1.70;1.00;;;12.90;99.90;;;;;;5074441;28;20454;-66
2024/04/03 12:23:33;;;;;;;2.73;1.30;;;12.70;99.90;;;;;;5074023;28;20459;-66
2024/04/03 12:26:01;;;;;;;3.33;1.30;;;12.50;99.90;;;;;;5074280;28;20491;-67
2024/04/03 12:28:27;;;;;;;1.43;1.10;;;12.40;99.90;;;;;;5073688;28;20204;-67
2024/04/03 12:30:54;;;;;;;4.50;2.00;;;12.30;99.90;;;;;;5077283;28;20900;-67
2024/04/03 12:33:20;;;;;;;1.93;1.40;;;12.20;99.90;;;;;;5086010;28;20235;-67
2024/04/03 12:35:47;;;;;;;3.53;1.90;;;12.40;99.90;;;;;;5087797;28;20450;-66
2024/04/03 12:38:13;;;;;;;2.83;1.60;;;12.50;99.90;;;;;;5077507;28;20201;-67
2024/04/03 12:40:40;;;;;;;3.67;1.43;;;12.60;99.90;;;;;;5078462;28;20473;-67
2024/04/03 12:43:07;;;;;;;2.13;1.50;;;12.70;99.90;;;;;;5077101;28;20481;-65
2024/04/03 12:45:33;;;;;;;3.00;1.63;;;12.70;99.90;;;;;;5077376;28;20443;-67
2024/04/03 12:47:59;;;;;;;2.63;1.47;;;12.70;99.90;;;;;;5077192;28;20443;-67
2024/04/03 12:50:27;;;;;;;3.40;1.70;;;12.80;99.90;;;;;;5077600;28;20811;-67
2024/04/03 12:52:53;;;;;;;1.53;1.33;;;12.80;99.90;;;;;;5077286;28;20463;-66
2024/04/03 12:55:20;;;;;;;2.47;1.33;;;12.80;99.90;;;;;;5077376;28;20492;-67